sensor_id;sensor_type;location;lat;lon;timestamp;pressure;altitude;pressure_sealevel;temperature;humidity
74329;BME280;62749;51.982;5.916;2022-08-20T00:00:23;101406.56;;;20.88;77.70
74329;BME280;62749;51.982;5.916;2022-08-20T00:02:59;101402.53;;;20.82;77.75
74329;BME280;62749;51.982;5.916;2022-08-20T00:05:36;101395.16;;;21.31;75.50
74329;BME280;62749;51.982;5.916;2022-08-20T00:08:09;101395.59;;;20.43;79.49
74329;BME280;62749;51.982;5.916;2022-08-20T00:10:43;101392.13;;;20.78;78.04
74329;BME280;62749;51.982;5.916;2022-08-20T00:13:19;101395.63;;;21.03;77.00
74329;BME280;62749;51.982;5.916;2022-08-20T00:15:55;101400.16;;;21.25;76.47
74329;BME280;62749;51.982;5.916;2022-08-20T00:18:26;101407.22;;;21.03;76.71
74329;BME280;62749;51.982;5.916;2022-08-20T00:20:57;101407.59;;;21.10;76.73
74329;BME280;62749;51.982;5.916;2022-08-20T00:23:28;101398.13;;;20.81;77.48
74329;BME280;62749;51.982;5.916;2022-08-20T00:25:58;101396.75;;;20.76;78.48
74329;BME280;62749;51.982;5.916;2022-08-20T00:28:30;101397.50;;;20.78;78.01
74329;BME280;62749;51.982;5.916;2022-08-20T00:31:06;101402.06;;;20.40;80.09
74329;BME280;62749;51.982;5.916;2022-08-20T00:33:39;101401.22;;;20.39;79.66
74329;BME280;62749;51.982;5.916;2022-08-20T00:36:09;101400.56;;;20.12;80.88
74329;BME280;62749;51.982;5.916;2022-08-20T00:38:43;101404.44;;;19.95;81.68
74329;BME280;62749;51.982;5.916;2022-08-20T00:41:20;101408.13;;;19.93;81.72
74329;BME280;62749;51.982;5.916;2022-08-20T00:44:05;101401.19;;;20.15;81.07
74329;BME280;62749;51.982;5.916;2022-08-20T00:46:41;101401.13;;;20.28;81.55
74329;BME280;62749;51.982;5.916;2022-08-20T00:49:22;101404.63;;;20.17;81.53
74329;BME280;62749;51.982;5.916;2022-08-20T00:51:59;101406.31;;;20.43;81.04
74329;BME280;62749;51.982;5.916;2022-08-20T00:54:38;101404.00;;;20.14;82.43
74329;BME280;62749;51.982;5.916;2022-08-20T00:57:22;101408.97;;;19.94;84.55
74329;BME280;62749;51.982;5.916;2022-08-20T00:59:58;101407.03;;;19.96;85.71
74329;BME280;62749;51.982;5.916;2022-08-20T01:02:33;101408.25;;;19.53;86.86
74329;BME280;62749;51.982;5.916;2022-08-20T01:05:05;101407.16;;;19.43;87.28
74329;BME280;62749;51.982;5.916;2022-08-20T01:07:37;101402.13;;;19.38;88.56
74329;BME280;62749;51.982;5.916;2022-08-20T01:10:11;101400.94;;;19.42;88.64
74329;BME280;62749;51.982;5.916;2022-08-20T01:12:46;101401.44;;;19.99;86.36
74329;BME280;62749;51.982;5.916;2022-08-20T01:15:19;101404.16;;;19.86;86.27
74329;BME280;62749;51.982;5.916;2022-08-20T01:17:57;101412.19;;;19.35;88.11
74329;BME280;62749;51.982;5.916;2022-08-20T01:20:32;101415.81;;;19.08;88.84
74329;BME280;62749;51.982;5.916;2022-08-20T01:23:13;101415.56;;;18.98;88.78
74329;BME280;62749;51.982;5.916;2022-08-20T01:26:05;101419.34;;;19.08;89.69
74329;BME280;62749;51.982;5.916;2022-08-20T01:28:41;101414.56;;;19.26;89.25
74329;BME280;62749;51.982;5.916;2022-08-20T01:31:15;101414.75;;;19.23;88.37
74329;BME280;62749;51.982;5.916;2022-08-20T01:33:48;101413.25;;;19.45;87.07
74329;BME280;62749;51.982;5.916;2022-08-20T01:36:23;101401.25;;;19.12;85.91
74329;BME280;62749;51.982;5.916;2022-08-20T01:38:56;101397.59;;;19.77;84.84
74329;BME280;62749;51.982;5.916;2022-08-20T01:41:46;101400.94;;;19.81;85.01
74329;BME280;62749;51.982;5.916;2022-08-20T01:44:24;101402.34;;;19.48;85.92
74329;BME280;62749;51.982;5.916;2022-08-20T01:46:55;101390.31;;;19.92;83.95
74329;BME280;62749;51.982;5.916;2022-08-20T01:49:30;101397.16;;;19.97;83.53
74329;BME280;62749;51.982;5.916;2022-08-20T01:52:08;101395.75;;;20.04;83.15
74329;BME280;62749;51.982;5.916;2022-08-20T01:54:42;101393.41;;;20.23;82.27
74329;BME280;62749;51.982;5.916;2022-08-20T01:57:16;101400.16;;;20.29;82.28
74329;BME280;62749;51.982;5.916;2022-08-20T01:59:49;101402.91;;;20.16;82.74
74329;BME280;62749;51.982;5.916;2022-08-20T02:02:20;101404.91;;;19.88;83.23
74329;BME280;62749;51.982;5.916;2022-08-20T02:04:50;101406.91;;;19.85;84.56
74329;BME280;62749;51.982;5.916;2022-08-20T02:07:22;101406.28;;;19.81;84.58
74329;BME280;62749;51.982;5.916;2022-08-20T02:09:52;101405.63;;;19.77;83.52
74329;BME280;62749;51.982;5.916;2022-08-20T02:12:25;101415.56;;;20.01;82.98
74329;BME280;62749;51.982;5.916;2022-08-20T02:14:55;101395.19;;;20.12;82.35
74329;BME280;62749;51.982;5.916;2022-08-20T02:17:26;101398.72;;;20.12;83.08
74329;BME280;62749;51.982;5.916;2022-08-20T02:19:59;101408.28;;;20.03;82.87
74329;BME280;62749;51.982;5.916;2022-08-20T02:22:39;101411.22;;;19.74;84.63
74329;BME280;62749;51.982;5.916;2022-08-20T02:25:13;101418.41;;;19.48;85.96
74329;BME280;62749;51.982;5.916;2022-08-20T02:27:50;101419.34;;;19.86;84.17
74329;BME280;62749;51.982;5.916;2022-08-20T02:30:26;101423.31;;;19.93;84.29
74329;BME280;62749;51.982;5.916;2022-08-20T02:33:01;101424.63;;;19.87;84.29
74329;BME280;62749;51.982;5.916;2022-08-20T02:35:34;101422.03;;;19.86;84.89
74329;BME280;62749;51.982;5.916;2022-08-20T02:38:05;101422.25;;;19.83;83.86
74329;BME280;62749;51.982;5.916;2022-08-20T02:40:35;101419.25;;;20.00;83.59
74329;BME280;62749;51.982;5.916;2022-08-20T02:43:09;101417.56;;;19.86;83.81
74329;BME280;62749;51.982;5.916;2022-08-20T02:45:41;101420.13;;;19.62;83.17
74329;BME280;62749;51.982;5.916;2022-08-20T02:48:15;101427.41;;;19.47;83.69
74329;BME280;62749;51.982;5.916;2022-08-20T02:50:51;101426.47;;;19.61;83.61
74329;BME280;62749;51.982;5.916;2022-08-20T02:53:23;101423.13;;;19.57;84.42
74329;BME280;62749;51.982;5.916;2022-08-20T02:55:55;101417.66;;;19.59;83.35
74329;BME280;62749;51.982;5.916;2022-08-20T02:58:28;101410.13;;;19.64;83.71
74329;BME280;62749;51.982;5.916;2022-08-20T03:00:58;101409.38;;;19.75;83.82
74329;BME280;62749;51.982;5.916;2022-08-20T03:03:29;101412.28;;;19.98;81.96
74329;BME280;62749;51.982;5.916;2022-08-20T03:05:59;101413.47;;;19.93;82.88
74329;BME280;62749;51.982;5.916;2022-08-20T03:08:30;101406.06;;;19.58;82.87
74329;BME280;62749;51.982;5.916;2022-08-20T03:11:00;101411.41;;;19.84;82.25
74329;BME280;62749;51.982;5.916;2022-08-20T03:13:33;101413.69;;;19.90;81.44
74329;BME280;62749;51.982;5.916;2022-08-20T03:16:04;101411.31;;;19.86;82.79
74329;BME280;62749;51.982;5.916;2022-08-20T03:18:38;101400.41;;;19.24;85.68
74329;BME280;62749;51.982;5.916;2022-08-20T03:21:14;101401.59;;;19.46;85.22
74329;BME280;62749;51.982;5.916;2022-08-20T03:23:44;101409.81;;;19.43;84.70
74329;BME280;62749;51.982;5.916;2022-08-20T03:26:14;101413.06;;;19.35;85.51
74329;BME280;62749;51.982;5.916;2022-08-20T03:28:47;101425.47;;;19.49;85.69
74329;BME280;62749;51.982;5.916;2022-08-20T03:31:17;101419.47;;;19.58;83.11
74329;BME280;62749;51.982;5.916;2022-08-20T03:33:47;101405.97;;;19.47;83.98
74329;BME280;62749;51.982;5.916;2022-08-20T03:36:17;101415.94;;;19.19;84.76
74329;BME280;62749;51.982;5.916;2022-08-20T03:38:47;101422.81;;;19.49;85.17
74329;BME280;62749;51.982;5.916;2022-08-20T03:41:17;101422.69;;;19.51;84.93
74329;BME280;62749;51.982;5.916;2022-08-20T03:43:50;101417.13;;;19.41;84.64
74329;BME280;62749;51.982;5.916;2022-08-20T03:46:20;101420.84;;;19.64;83.52
74329;BME280;62749;51.982;5.916;2022-08-20T03:48:51;101416.03;;;19.30;85.55
74329;BME280;62749;51.982;5.916;2022-08-20T03:51:21;101414.34;;;19.55;85.52
74329;BME280;62749;51.982;5.916;2022-08-20T03:53:51;101417.56;;;19.73;82.94
74329;BME280;62749;51.982;5.916;2022-08-20T03:56:21;101416.78;;;19.58;83.37
74329;BME280;62749;51.982;5.916;2022-08-20T03:58:54;101420.78;;;19.91;83.02
74329;BME280;62749;51.982;5.916;2022-08-20T04:01:24;101423.53;;;19.77;83.21
74329;BME280;62749;51.982;5.916;2022-08-20T04:03:55;101422.47;;;19.92;82.91
74329;BME280;62749;51.982;5.916;2022-08-20T04:06:26;101430.94;;;19.73;83.18
74329;BME280;62749;51.982;5.916;2022-08-20T04:08:56;101437.38;;;19.32;85.27
74329;BME280;62749;51.982;5.916;2022-08-20T04:11:26;101427.84;;;18.88;87.15
74329;BME280;62749;51.982;5.916;2022-08-20T04:14:01;101427.25;;;18.42;88.98
74329;BME280;62749;51.982;5.916;2022-08-20T04:16:31;101433.22;;;18.33;88.91
74329;BME280;62749;51.982;5.916;2022-08-20T04:19:02;101427.50;;;18.92;86.74
74329;BME280;62749;51.982;5.916;2022-08-20T04:21:34;101433.16;;;18.75;87.92
74329;BME280;62749;51.982;5.916;2022-08-20T04:24:05;101433.22;;;18.60;88.45
74329;BME280;62749;51.982;5.916;2022-08-20T04:26:36;101422.03;;;19.08;87.27
74329;BME280;62749;51.982;5.916;2022-08-20T04:29:08;101422.25;;;19.05;85.33
74329;BME280;62749;51.982;5.916;2022-08-20T04:31:38;101422.38;;;19.29;84.85
74329;BME280;62749;51.982;5.916;2022-08-20T04:34:09;101434.69;;;19.45;83.96
74329;BME280;62749;51.982;5.916;2022-08-20T04:36:39;101445.28;;;19.21;85.68
74329;BME280;62749;51.982;5.916;2022-08-20T04:39:09;101444.94;;;19.12;85.58
74329;BME280;62749;51.982;5.916;2022-08-20T04:41:38;101442.19;;;19.27;85.34
74329;BME280;62749;51.982;5.916;2022-08-20T04:44:11;101441.03;;;19.57;83.60
74329;BME280;62749;51.982;5.916;2022-08-20T04:46:42;101448.84;;;19.47;82.46
74329;BME280;62749;51.982;5.916;2022-08-20T04:49:12;101453.78;;;19.40;84.18
74329;BME280;62749;51.982;5.916;2022-08-20T04:51:42;101455.94;;;18.95;86.30
74329;BME280;62749;51.982;5.916;2022-08-20T04:54:12;101462.34;;;18.37;88.64
74329;BME280;62749;51.982;5.916;2022-08-20T04:56:42;101462.22;;;18.39;89.09
74329;BME280;62749;51.982;5.916;2022-08-20T04:59:16;101466.44;;;18.43;89.38
74329;BME280;62749;51.982;5.916;2022-08-20T05:01:46;101466.28;;;18.59;89.04
74329;BME280;62749;51.982;5.916;2022-08-20T05:04:16;101464.00;;;18.80;88.03
74329;BME280;62749;51.982;5.916;2022-08-20T05:06:47;101463.78;;;18.56;84.09
74329;BME280;62749;51.982;5.916;2022-08-20T05:09:17;101469.19;;;18.42;83.31
74329;BME280;62749;51.982;5.916;2022-08-20T05:11:47;101484.28;;;18.43;80.97
74329;BME280;62749;51.982;5.916;2022-08-20T05:14:19;101484.78;;;17.91;83.33
74329;BME280;62749;51.982;5.916;2022-08-20T05:16:49;101496.88;;;17.68;85.87
74329;BME280;62749;51.982;5.916;2022-08-20T05:19:23;101489.44;;;17.59;87.21
74329;BME280;62749;51.982;5.916;2022-08-20T05:21:54;101489.38;;;17.89;86.76
74329;BME280;62749;51.982;5.916;2022-08-20T05:24:24;101480.72;;;18.57;84.33
74329;BME280;62749;51.982;5.916;2022-08-20T05:26:55;101487.94;;;18.69;84.11
74329;BME280;62749;51.982;5.916;2022-08-20T05:29:27;101480.16;;;18.79;84.36
74329;BME280;62749;51.982;5.916;2022-08-20T05:31:57;101488.19;;;18.79;83.80
74329;BME280;62749;51.982;5.916;2022-08-20T05:34:27;101484.13;;;19.00;84.21
74329;BME280;62749;51.982;5.916;2022-08-20T05:36:57;101488.34;;;19.17;84.38
74329;BME280;62749;51.982;5.916;2022-08-20T05:39:29;101492.09;;;19.15;83.53
74329;BME280;62749;51.982;5.916;2022-08-20T05:41:59;101491.13;;;18.89;84.63
74329;BME280;62749;51.982;5.916;2022-08-20T05:44:32;101492.38;;;18.83;85.34
74329;BME280;62749;51.982;5.916;2022-08-20T05:47:03;101494.06;;;18.71;83.88
74329;BME280;62749;51.982;5.916;2022-08-20T05:49:36;101491.41;;;18.98;84.14
74329;BME280;62749;51.982;5.916;2022-08-20T05:52:06;101493.72;;;18.48;86.80
74329;BME280;62749;51.982;5.916;2022-08-20T05:54:36;101500.03;;;18.89;83.96
74329;BME280;62749;51.982;5.916;2022-08-20T05:57:06;101497.13;;;18.92;79.98
74329;BME280;62749;51.982;5.916;2022-08-20T05:59:39;101497.53;;;18.86;81.20
74329;BME280;62749;51.982;5.916;2022-08-20T06:02:09;101500.53;;;19.09;79.07
74329;BME280;62749;51.982;5.916;2022-08-20T06:04:51;101512.06;;;18.82;81.96
74329;BME280;62749;51.982;5.916;2022-08-20T06:07:21;101514.53;;;18.58;81.87
74329;BME280;62749;51.982;5.916;2022-08-20T06:09:51;101510.28;;;18.82;81.15
74329;BME280;62749;51.982;5.916;2022-08-20T06:12:21;101508.09;;;18.75;81.39
74329;BME280;62749;51.982;5.916;2022-08-20T06:14:54;101509.53;;;19.08;81.71
74329;BME280;62749;51.982;5.916;2022-08-20T06:17:24;101500.25;;;19.26;80.29
74329;BME280;62749;51.982;5.916;2022-08-20T06:19:55;101502.63;;;19.31;81.22
74329;BME280;62749;51.982;5.916;2022-08-20T06:22:24;101502.19;;;19.24;80.92
74329;BME280;62749;51.982;5.916;2022-08-20T06:24:55;101497.34;;;18.89;82.30
74329;BME280;62749;51.982;5.916;2022-08-20T06:27:25;101497.31;;;18.62;83.99
74329;BME280;62749;51.982;5.916;2022-08-20T06:29:58;101497.53;;;19.00;82.61
74329;BME280;62749;51.982;5.916;2022-08-20T06:32:28;101500.31;;;19.52;81.61
74329;BME280;62749;51.982;5.916;2022-08-20T06:35:00;101497.66;;;19.12;80.69
74329;BME280;62749;51.982;5.916;2022-08-20T06:37:32;101504.59;;;19.01;82.72
74329;BME280;62749;51.982;5.916;2022-08-20T06:40:07;101505.94;;;19.22;81.81
74329;BME280;62749;51.982;5.916;2022-08-20T06:42:40;101510.59;;;19.45;81.64
74329;BME280;62749;51.982;5.916;2022-08-20T06:45:15;101515.75;;;19.49;81.32
74329;BME280;62749;51.982;5.916;2022-08-20T06:47:51;101508.94;;;19.30;82.20
74329;BME280;62749;51.982;5.916;2022-08-20T06:50:27;101515.13;;;19.30;81.92
74329;BME280;62749;51.982;5.916;2022-08-20T06:52:59;101525.25;;;19.53;81.30
74329;BME280;62749;51.982;5.916;2022-08-20T06:55:29;101516.53;;;19.89;81.09
74329;BME280;62749;51.982;5.916;2022-08-20T06:58:01;101515.66;;;20.02;79.95
74329;BME280;62749;51.982;5.916;2022-08-20T07:00:37;101521.63;;;19.80;79.52
74329;BME280;62749;51.982;5.916;2022-08-20T07:03:09;101518.03;;;19.93;80.14
74329;BME280;62749;51.982;5.916;2022-08-20T07:05:43;101519.84;;;19.93;81.28
74329;BME280;62749;51.982;5.916;2022-08-20T07:08:15;101521.13;;;20.13;79.35
74329;BME280;62749;51.982;5.916;2022-08-20T07:10:48;101515.13;;;19.97;80.06
74329;BME280;62749;51.982;5.916;2022-08-20T07:13:19;101517.41;;;19.50;79.55
74329;BME280;62749;51.982;5.916;2022-08-20T07:15:53;101510.91;;;19.54;77.56
74329;BME280;62749;51.982;5.916;2022-08-20T07:18:24;101514.47;;;19.54;76.51
74329;BME280;62749;51.982;5.916;2022-08-20T07:20:55;101520.53;;;19.56;77.24
74329;BME280;62749;51.982;5.916;2022-08-20T07:23:27;101525.81;;;19.58;77.77
74329;BME280;62749;51.982;5.916;2022-08-20T07:25:57;101533.59;;;19.88;76.15
74329;BME280;62749;51.982;5.916;2022-08-20T07:28:29;101528.41;;;20.11;72.33
74329;BME280;62749;51.982;5.916;2022-08-20T07:31:02;101540.53;;;19.91;73.34
74329;BME280;62749;51.982;5.916;2022-08-20T07:33:44;101537.06;;;19.63;76.05
74329;BME280;62749;51.982;5.916;2022-08-20T07:36:14;101539.56;;;19.92;74.12
74329;BME280;62749;51.982;5.916;2022-08-20T07:38:45;101547.28;;;20.35;72.08
74329;BME280;62749;51.982;5.916;2022-08-20T07:41:19;101543.22;;;20.30;72.78
74329;BME280;62749;51.982;5.916;2022-08-20T07:43:49;101545.56;;;19.96;73.58
74329;BME280;62749;51.982;5.916;2022-08-20T07:46:21;101543.97;;;19.80;72.59
74329;BME280;62749;51.982;5.916;2022-08-20T07:48:51;101544.50;;;20.24;69.28
74329;BME280;62749;51.982;5.916;2022-08-20T07:51:21;101554.91;;;20.16;71.23
74329;BME280;62749;51.982;5.916;2022-08-20T07:53:51;101552.84;;;20.45;69.38
74329;BME280;62749;51.982;5.916;2022-08-20T07:56:23;101550.88;;;20.47;70.16
74329;BME280;62749;51.982;5.916;2022-08-20T07:58:55;101549.13;;;20.22;71.77
74329;BME280;62749;51.982;5.916;2022-08-20T08:01:31;101544.63;;;20.60;69.91
74329;BME280;62749;51.982;5.916;2022-08-20T08:04:01;101547.56;;;20.94;71.63
74329;BME280;62749;51.982;5.916;2022-08-20T08:06:31;101542.56;;;20.76;70.93
74329;BME280;62749;51.982;5.916;2022-08-20T08:09:04;101555.00;;;20.90;72.81
74329;BME280;62749;51.982;5.916;2022-08-20T08:11:40;101550.72;;;20.24;72.49
74329;BME280;62749;51.982;5.916;2022-08-20T08:14:17;101557.66;;;20.40;71.03
74329;BME280;62749;51.982;5.916;2022-08-20T08:16:57;101560.50;;;20.13;72.21
74329;BME280;62749;51.982;5.916;2022-08-20T08:19:34;101558.75;;;20.88;71.91
74329;BME280;62749;51.982;5.916;2022-08-20T08:22:11;101565.41;;;21.30;68.93
74329;BME280;62749;51.982;5.916;2022-08-20T08:24:44;101560.72;;;20.73;67.91
74329;BME280;62749;51.982;5.916;2022-08-20T08:27:15;101563.06;;;20.90;70.32
74329;BME280;62749;51.982;5.916;2022-08-20T08:29:47;101559.34;;;21.28;68.30
74329;BME280;62749;51.982;5.916;2022-08-20T08:32:20;101567.34;;;22.34;62.45
74329;BME280;62749;51.982;5.916;2022-08-20T08:34:50;101566.50;;;21.99;63.46
74329;BME280;62749;51.982;5.916;2022-08-20T08:37:20;101574.00;;;22.52;60.15
74329;BME280;62749;51.982;5.916;2022-08-20T08:39:50;101571.22;;;21.73;61.88
74329;BME280;62749;51.982;5.916;2022-08-20T08:42:27;101571.53;;;22.38;60.80
74329;BME280;62749;51.982;5.916;2022-08-20T08:45:06;101577.44;;;22.55;59.89
74329;BME280;62749;51.982;5.916;2022-08-20T08:47:40;101578.19;;;24.39;57.93
74329;BME280;62749;51.982;5.916;2022-08-20T08:50:20;101584.69;;;25.48;52.15
74329;BME280;62749;51.982;5.916;2022-08-20T08:52:55;101587.28;;;24.69;53.86
74329;BME280;62749;51.982;5.916;2022-08-20T08:55:28;101588.28;;;23.95;54.46
74329;BME280;62749;51.982;5.916;2022-08-20T08:58:02;101581.66;;;23.78;53.81
74329;BME280;62749;51.982;5.916;2022-08-20T09:00:33;101588.38;;;24.04;53.95
74329;BME280;62749;51.982;5.916;2022-08-20T09:03:08;101589.25;;;24.36;51.95
74329;BME280;62749;51.982;5.916;2022-08-20T09:05:45;101588.44;;;25.94;48.90
74329;BME280;62749;51.982;5.916;2022-08-20T09:08:23;101593.97;;;26.50;46.94
74329;BME280;62749;51.982;5.916;2022-08-20T09:11:00;101592.50;;;24.30;53.47
74329;BME280;62749;51.982;5.916;2022-08-20T09:13:31;101589.22;;;26.24;47.43
74329;BME280;62749;51.982;5.916;2022-08-20T09:16:03;101581.47;;;27.13;46.29
74329;BME280;62749;51.982;5.916;2022-08-20T09:18:36;101592.38;;;26.75;46.40
74329;BME280;62749;51.982;5.916;2022-08-20T09:21:07;101590.44;;;24.53;52.67
74329;BME280;62749;51.982;5.916;2022-08-20T09:23:37;101598.72;;;25.12;51.67
74329;BME280;62749;51.982;5.916;2022-08-20T09:26:07;101589.69;;;24.10;50.97
74329;BME280;62749;51.982;5.916;2022-08-20T09:28:37;101590.78;;;25.50;47.41
74329;BME280;62749;51.982;5.916;2022-08-20T09:31:07;101597.72;;;25.13;47.94
74329;BME280;62749;51.982;5.916;2022-08-20T09:33:40;101590.97;;;24.37;50.95
74329;BME280;62749;51.982;5.916;2022-08-20T09:36:10;101597.00;;;25.70;49.50
74329;BME280;62749;51.982;5.916;2022-08-20T09:38:40;101592.38;;;26.85;44.44
74329;BME280;62749;51.982;5.916;2022-08-20T09:41:10;101582.94;;;24.57;46.49
74329;BME280;62749;51.982;5.916;2022-08-20T09:43:40;101592.53;;;23.87;46.33
74329;BME280;62749;51.982;5.916;2022-08-20T09:46:10;101586.13;;;24.72;47.07
74329;BME280;62749;51.982;5.916;2022-08-20T09:48:42;101587.16;;;24.49;49.53
74329;BME280;62749;51.982;5.916;2022-08-20T09:51:12;101584.75;;;22.18;53.62
74329;BME280;62749;51.982;5.916;2022-08-20T09:53:42;101588.06;;;22.56;52.58
74329;BME280;62749;51.982;5.916;2022-08-20T09:56:14;101585.22;;;22.80;51.20
74329;BME280;62749;51.982;5.916;2022-08-20T09:58:48;101584.25;;;22.13;50.68
74329;BME280;62749;51.982;5.916;2022-08-20T10:01:21;101579.13;;;23.11;48.72
74329;BME280;62749;51.982;5.916;2022-08-20T10:03:54;101589.97;;;23.86;47.56
74329;BME280;62749;51.982;5.916;2022-08-20T10:06:24;101581.50;;;25.72;43.98
74329;BME280;62749;51.982;5.916;2022-08-20T10:08:54;101579.94;;;25.69;43.41
74329;BME280;62749;51.982;5.916;2022-08-20T10:11:25;101579.28;;;25.48;45.57
74329;BME280;62749;51.982;5.916;2022-08-20T10:13:55;101590.41;;;24.74;44.67
74329;BME280;62749;51.982;5.916;2022-08-20T10:16:25;101595.69;;;23.06;44.97
74329;BME280;62749;51.982;5.916;2022-08-20T10:18:57;101587.44;;;23.52;45.33
74329;BME280;62749;51.982;5.916;2022-08-20T10:21:29;101588.09;;;23.44;44.45
74329;BME280;62749;51.982;5.916;2022-08-20T10:24:00;101581.34;;;23.71;49.42
74329;BME280;62749;51.982;5.916;2022-08-20T10:26:31;101584.66;;;25.38;44.45
74329;BME280;62749;51.982;5.916;2022-08-20T10:29:01;101581.59;;;25.90;42.37
74329;BME280;62749;51.982;5.916;2022-08-20T10:31:31;101583.38;;;25.32;42.39
74329;BME280;62749;51.982;5.916;2022-08-20T10:34:04;101595.28;;;25.00;43.16
74329;BME280;62749;51.982;5.916;2022-08-20T10:36:34;101594.16;;;24.52;45.21
74329;BME280;62749;51.982;5.916;2022-08-20T10:39:04;101596.94;;;25.42;41.24
74329;BME280;62749;51.982;5.916;2022-08-20T10:41:34;101596.75;;;24.63;44.32
74329;BME280;62749;51.982;5.916;2022-08-20T10:44:04;101604.28;;;22.89;46.99
74329;BME280;62749;51.982;5.916;2022-08-20T10:46:34;101597.28;;;24.16;46.70
74329;BME280;62749;51.982;5.916;2022-08-20T10:49:07;101593.63;;;25.48;42.71
74329;BME280;62749;51.982;5.916;2022-08-20T10:51:37;101601.56;;;25.30;42.24
74329;BME280;62749;51.982;5.916;2022-08-20T10:54:07;101594.84;;;24.44;44.47
74329;BME280;62749;51.982;5.916;2022-08-20T10:56:37;101590.31;;;25.74;42.12
74329;BME280;62749;51.982;5.916;2022-08-20T10:59:06;101596.31;;;26.63;41.52
74329;BME280;62749;51.982;5.916;2022-08-20T11:01:36;101593.88;;;26.60;40.96
74329;BME280;62749;51.982;5.916;2022-08-20T11:04:09;101594.88;;;24.23;39.55
74329;BME280;62749;51.982;5.916;2022-08-20T11:06:39;101596.63;;;24.34;41.71
74329;BME280;62749;51.982;5.916;2022-08-20T11:09:09;101597.53;;;24.44;42.05
74329;BME280;62749;51.982;5.916;2022-08-20T11:11:39;101592.63;;;25.20;41.61
74329;BME280;62749;51.982;5.916;2022-08-20T11:14:09;101594.78;;;25.55;41.25
74329;BME280;62749;51.982;5.916;2022-08-20T11:16:39;101595.94;;;24.32;41.64
74329;BME280;62749;51.982;5.916;2022-08-20T11:19:11;101591.59;;;25.11;39.31
74329;BME280;62749;51.982;5.916;2022-08-20T11:21:41;101596.88;;;24.62;40.39
74329;BME280;62749;51.982;5.916;2022-08-20T11:24:11;101591.22;;;23.28;42.94
74329;BME280;62749;51.982;5.916;2022-08-20T11:26:42;101595.25;;;24.09;45.38
74329;BME280;62749;51.982;5.916;2022-08-20T11:29:15;101598.16;;;26.34;39.96
74329;BME280;62749;51.982;5.916;2022-08-20T11:31:46;101593.38;;;27.56;38.52
74329;BME280;62749;51.982;5.916;2022-08-20T11:34:19;101611.22;;;26.77;38.98
74329;BME280;62749;51.982;5.916;2022-08-20T11:36:49;101605.00;;;25.52;40.51
74329;BME280;62749;51.982;5.916;2022-08-20T11:39:19;101612.22;;;26.76;38.48
74329;BME280;62749;51.982;5.916;2022-08-20T11:41:49;101612.59;;;26.53;37.49
74329;BME280;62749;51.982;5.916;2022-08-20T11:44:19;101601.00;;;25.76;39.25
74329;BME280;62749;51.982;5.916;2022-08-20T11:46:49;101606.16;;;25.69;39.70
74329;BME280;62749;51.982;5.916;2022-08-20T11:49:22;101614.16;;;26.28;38.62
74329;BME280;62749;51.982;5.916;2022-08-20T11:51:52;101610.13;;;25.35;38.52
74329;BME280;62749;51.982;5.916;2022-08-20T11:54:22;101603.63;;;25.48;38.93
74329;BME280;62749;51.982;5.916;2022-08-20T11:56:54;101606.00;;;25.70;38.63
74329;BME280;62749;51.982;5.916;2022-08-20T11:59:25;101601.56;;;25.01;37.56
74329;BME280;62749;51.982;5.916;2022-08-20T12:01:56;101602.47;;;27.11;35.18
74329;BME280;62749;51.982;5.916;2022-08-20T12:04:29;101595.50;;;27.63;34.99
74329;BME280;62749;51.982;5.916;2022-08-20T12:07:07;101600.28;;;27.33;33.97
74329;BME280;62749;51.982;5.916;2022-08-20T12:09:39;101597.22;;;26.16;36.46
74329;BME280;62749;51.982;5.916;2022-08-20T12:12:10;101593.31;;;28.97;33.37
74329;BME280;62749;51.982;5.916;2022-08-20T12:14:40;101594.38;;;29.62;31.66
74329;BME280;62749;51.982;5.916;2022-08-20T12:17:12;101596.63;;;28.31;34.69
74329;BME280;62749;51.982;5.916;2022-08-20T12:19:46;101586.13;;;27.83;33.25
74329;BME280;62749;51.982;5.916;2022-08-20T12:22:17;101592.41;;;25.90;35.57
74329;BME280;62749;51.982;5.916;2022-08-20T12:24:47;101581.00;;;27.36;33.41
74329;BME280;62749;51.982;5.916;2022-08-20T12:27:20;101590.81;;;26.55;33.07
74329;BME280;62749;51.982;5.916;2022-08-20T12:29:54;101586.66;;;27.24;32.84
74329;BME280;62749;51.982;5.916;2022-08-20T12:32:27;101582.53;;;27.56;32.23
74329;BME280;62749;51.982;5.916;2022-08-20T12:35:03;101586.13;;;27.83;33.09
74329;BME280;62749;51.982;5.916;2022-08-20T12:37:35;101587.09;;;28.00;31.27
74329;BME280;62749;51.982;5.916;2022-08-20T12:40:09;101592.47;;;26.38;33.23
74329;BME280;62749;51.982;5.916;2022-08-20T12:42:41;101593.63;;;25.58;35.60
74329;BME280;62749;51.982;5.916;2022-08-20T12:45:11;101609.66;;;26.46;33.56
74329;BME280;62749;51.982;5.916;2022-08-20T12:47:43;101607.09;;;24.58;37.56
74329;BME280;62749;51.982;5.916;2022-08-20T12:50:22;101602.41;;;25.89;36.16
74329;BME280;62749;51.982;5.916;2022-08-20T12:52:55;101597.28;;;26.34;34.63
74329;BME280;62749;51.982;5.916;2022-08-20T12:55:25;101596.50;;;25.47;36.94
74329;BME280;62749;51.982;5.916;2022-08-20T12:57:57;101594.72;;;24.96;36.52
74329;BME280;62749;51.982;5.916;2022-08-20T13:00:32;101596.34;;;24.37;37.61
74329;BME280;62749;51.982;5.916;2022-08-20T13:03:05;101594.63;;;24.67;37.60
74329;BME280;62749;51.982;5.916;2022-08-20T13:05:39;101595.00;;;24.21;37.34
74329;BME280;62749;51.982;5.916;2022-08-20T13:08:11;101590.59;;;24.51;37.40
74329;BME280;62749;51.982;5.916;2022-08-20T13:10:43;101586.88;;;26.67;33.81
74329;BME280;62749;51.982;5.916;2022-08-20T13:13:16;101580.50;;;25.73;34.44
74329;BME280;62749;51.982;5.916;2022-08-20T13:15:47;101587.47;;;26.61;33.67